Laprairie — VC9004 — position and weather

sailwx.info

Track history (hours):
 
Tides and Currents Weather Stations Pressure Air Temp Water Temp Dewpoint Dewpoint Depression Visibility Wind Speed Wind Dir Waves Ship Positions

Laprairie

Last reported at 2016-Jun-10 04:30 UTC. Time now 2016-Dec-10 08:57 UTC.
Position N 43°15' W 079°15'.
Warning: this ship's position is months out of date.

Length 22 m; draft 3 m.

Type: Tug. MMSI: 316005239.

Date/timePositionNaut miles runAvg speedWind from/ knotsBaromVisibWave heightAir tempDewpointWater temp
2016-Jun-10 04:30N 43°15' W 079°15'3 2.8
2016-Jun-10 03:29N 43°13' W 079°13'0 0.0
2016-Jun-10 02:23N 43°13' W 079°13'0 0.2
2016-Jun-10 01:32N 43°13' W 079°13'1 0.6
2016-Jun-10 00:34N 43°13' W 079°13'0 0.2
2016-Jun-09 23:34N 43°14' W 079°13'0 0.1
2016-Jun-09 22:30N 43°14' W 079°13'0 0.0
2016-Jun-09 21:24N 43°14' W 079°13'0 0.0
2016-Jun-09 20:24N 43°14' W 079°13'0 0.0
2016-Jun-09 19:30N 43°14' W 079°13'0 0.0
2016-Jun-09 18:30N 43°14' W 079°13'0 0.0
2016-Jun-09 17:30N 43°14' W 079°13'1 0.9
2016-Jun-09 16:34N 43°15' W 079°13'  
2016-Jun-06 20:32N 43°15' W 079°16'3 3.5
2016-Jun-06 19:34N 43°13' W 079°13'0 0.3
2016-Jun-06 18:12N 43°13' W 079°13'0 0.3
2016-Jun-06 17:34N 43°13' W 079°13'  
Track history (hours):
 
Tides and Currents Weather Stations Pressure Air Temp Water Temp Dewpoint Dewpoint Depression Visibility Wind Speed Wind Dir Waves Ship Positions

Laprairie

Last reported at 2016-Jun-10 04:30 UTC. Time now 2016-Dec-10 08:57 UTC.
Position N 43°15' W 079°15'.
Warning: this ship's position is months out of date.

Length 22 m; draft 3 m.

Type: Tug. MMSI: 316005239.

Date/timePositionNaut miles runAvg speedWind from/ knotsBaromVisibWave heightAir tempDewpointWater temp
2016-Jun-10 04:30N 43°15' W 079°15'3 2.8
2016-Jun-10 03:29N 43°13' W 079°13'0 0.0
2016-Jun-10 02:23N 43°13' W 079°13'0 0.2
2016-Jun-10 01:32N 43°13' W 079°13'1 0.6
2016-Jun-10 00:34N 43°13' W 079°13'0 0.2
2016-Jun-09 23:34N 43°14' W 079°13'0 0.1
2016-Jun-09 22:30N 43°14' W 079°13'0 0.0
2016-Jun-09 21:24N 43°14' W 079°13'0 0.0
2016-Jun-09 20:24N 43°14' W 079°13'0 0.0
2016-Jun-09 19:30N 43°14' W 079°13'0 0.0
2016-Jun-09 18:30N 43°14' W 079°13'0 0.0
2016-Jun-09 17:30N 43°14' W 079°13'1 0.9
2016-Jun-09 16:34N 43°15' W 079°13'  
2016-Jun-06 20:32N 43°15' W 079°16'3 3.5
2016-Jun-06 19:34N 43°13' W 079°13'0 0.3
2016-Jun-06 18:12N 43°13' W 079°13'0 0.3
2016-Jun-06 17:34N 43°13' W 079°13'  

Dump ship's entire track history